sensor_id;sensor_type;location;lat;lon;timestamp;pressure;altitude;pressure_sealevel;temperature;humidity
28665;BME280;15850;47.524;7.814;2022-08-01T00:01:08;97782.91;;;17.89;80.91
28665;BME280;15850;47.524;7.814;2022-08-01T00:03:34;97786.47;;;17.90;80.25
28665;BME280;15850;47.524;7.814;2022-08-01T00:06:01;97596.94;;;16.71;79.61
28665;BME280;15850;47.524;7.814;2022-08-01T00:08:26;97859.53;;;18.39;80.97
28665;BME280;15850;47.524;7.814;2022-08-01T00:10:52;97872.19;;;18.50;81.36
28665;BME280;15850;47.524;7.814;2022-08-01T00:13:18;97802.66;;;17.98;81.22
28665;BME280;15850;47.524;7.814;2022-08-01T00:15:43;97866.59;;;18.36;81.51
28665;BME280;15850;47.524;7.814;2022-08-01T00:18:09;97691.19;;;17.16;82.06
28665;BME280;15850;47.524;7.814;2022-08-01T00:20:34;97870.56;;;18.39;80.81
28665;BME280;15850;47.524;7.814;2022-08-01T00:23:03;97878.00;;;18.31;82.62
28665;BME280;15850;47.524;7.814;2022-08-01T00:25:28;97795.00;;;17.77;83.00
28665;BME280;15850;47.524;7.814;2022-08-01T00:27:54;97831.66;;;17.85;83.74
28665;BME280;15850;47.524;7.814;2022-08-01T00:30:19;97818.56;;;17.75;84.70
28665;BME280;15850;47.524;7.814;2022-08-01T00:32:45;97602.50;;;16.37;84.82
28665;BME280;15850;47.524;7.814;2022-08-01T00:35:10;97802.00;;;17.71;82.94
28665;BME280;15850;47.524;7.814;2022-08-01T00:37:36;97873.56;;;18.16;83.31
28665;BME280;15850;47.524;7.814;2022-08-01T00:40:04;97866.81;;;18.10;84.14
28665;BME280;15850;47.524;7.814;2022-08-01T00:42:30;97738.38;;;17.25;84.57
28665;BME280;15850;47.524;7.814;2022-08-01T00:44:59;97871.94;;;18.11;85.00
28665;BME280;15850;47.524;7.814;2022-08-01T00:47:25;97853.72;;;17.92;85.78
28665;BME280;15850;47.524;7.814;2022-08-01T00:49:51;97876.56;;;17.96;85.30
28665;BME280;15850;47.524;7.814;2022-08-01T00:52:16;97881.19;;;17.85;85.96
28665;BME280;15850;47.524;7.814;2022-08-01T00:54:42;97802.88;;;17.34;83.78
28665;BME280;15850;47.524;7.814;2022-08-01T00:57:10;97836.97;;;17.67;86.04
28665;BME280;15850;47.524;7.814;2022-08-01T00:59:36;97878.47;;;17.89;84.95
28665;BME280;15850;47.524;7.814;2022-08-01T01:02:02;97867.25;;;17.71;85.08
28665;BME280;15850;47.524;7.814;2022-08-01T01:04:27;97869.25;;;17.74;85.99
28665;BME280;15850;47.524;7.814;2022-08-01T01:06:57;97813.50;;;17.36;87.71
28665;BME280;15850;47.524;7.814;2022-08-01T01:09:34;97880.19;;;17.67;87.73
28665;BME280;15850;47.524;7.814;2022-08-01T01:12:08;97883.38;;;17.69;87.36
28665;BME280;15850;47.524;7.814;2022-08-01T01:14:43;97837.00;;;17.30;87.04
28665;BME280;15850;47.524;7.814;2022-08-01T01:17:11;97880.16;;;17.63;88.11
28665;BME280;15850;47.524;7.814;2022-08-01T01:19:43;97883.91;;;17.44;89.16
28665;BME280;15850;47.524;7.814;2022-08-01T01:22:25;97879.94;;;17.42;90.08
28665;BME280;15850;47.524;7.814;2022-08-01T01:27:57;97891.41;;;17.47;89.26
28665;BME280;15850;47.524;7.814;2022-08-01T01:30:30;97884.66;;;17.41;90.23
28665;BME280;15850;47.524;7.814;2022-08-01T01:32:59;97510.91;;;15.10;89.44
28665;BME280;15850;47.524;7.814;2022-08-01T01:35:28;97880.75;;;17.42;89.96
28665;BME280;15850;47.524;7.814;2022-08-01T01:38:00;97718.19;;;16.35;89.52
28665;BME280;15850;47.524;7.814;2022-08-01T01:40:27;97889.22;;;17.26;90.99
28665;BME280;15850;47.524;7.814;2022-08-01T01:42:55;97891.53;;;17.24;90.58
28665;BME280;15850;47.524;7.814;2022-08-01T01:45:23;97783.06;;;16.47;91.23
28665;BME280;15850;47.524;7.814;2022-08-01T01:47:51;97841.72;;;16.92;91.34
28665;BME280;15850;47.524;7.814;2022-08-01T01:50:19;97865.31;;;16.97;91.63
28665;BME280;15850;47.524;7.814;2022-08-01T01:52:45;97886.59;;;17.03;91.68
28665;BME280;15850;47.524;7.814;2022-08-01T01:55:12;97637.34;;;15.39;91.14
28665;BME280;15850;47.524;7.814;2022-08-01T01:57:40;97895.22;;;17.02;90.77
28665;BME280;15850;47.524;7.814;2022-08-01T02:00:07;97891.22;;;16.96;91.03
28665;BME280;15850;47.524;7.814;2022-08-01T02:02:34;97889.59;;;16.91;91.98
28665;BME280;15850;47.524;7.814;2022-08-01T02:05:03;97896.69;;;16.92;92.63
28665;BME280;15850;47.524;7.814;2022-08-01T02:07:29;97864.44;;;16.59;95.93
28665;BME280;15850;47.524;7.814;2022-08-01T02:09:56;97799.50;;;16.13;95.41
28665;BME280;15850;47.524;7.814;2022-08-01T02:12:24;97895.09;;;16.64;96.44
28665;BME280;15850;47.524;7.814;2022-08-01T02:14:50;97899.03;;;16.63;96.57
28665;BME280;15850;47.524;7.814;2022-08-01T02:17:19;97897.75;;;16.57;98.26
28665;BME280;15850;47.524;7.814;2022-08-01T02:19:46;97901.78;;;16.63;98.09
28665;BME280;15850;47.524;7.814;2022-08-01T02:22:16;97893.06;;;16.58;99.07
28665;BME280;15850;47.524;7.814;2022-08-01T02:24:49;97893.53;;;16.63;98.89
28665;BME280;15850;47.524;7.814;2022-08-01T02:27:22;97901.06;;;16.70;97.90
28665;BME280;15850;47.524;7.814;2022-08-01T02:29:53;97895.94;;;16.68;97.94
28665;BME280;15850;47.524;7.814;2022-08-01T02:32:25;97884.97;;;16.42;97.73
28665;BME280;15850;47.524;7.814;2022-08-01T02:34:53;97699.28;;;15.17;99.08
28665;BME280;15850;47.524;7.814;2022-08-01T02:37:23;97785.97;;;15.74;99.25
28665;BME280;15850;47.524;7.814;2022-08-01T02:39:54;97889.69;;;16.41;100.00
28665;BME280;15850;47.524;7.814;2022-08-01T02:42:22;97840.03;;;15.97;100.00
28665;BME280;15850;47.524;7.814;2022-08-01T02:44:49;97891.91;;;16.32;100.00
28665;BME280;15850;47.524;7.814;2022-08-01T02:47:17;97877.13;;;16.14;100.00
28665;BME280;15850;47.524;7.814;2022-08-01T02:49:46;97806.56;;;15.65;100.00
28665;BME280;15850;47.524;7.814;2022-08-01T02:52:14;97879.06;;;15.87;100.00
28665;BME280;15850;47.524;7.814;2022-08-01T02:54:43;97892.94;;;15.97;100.00
28665;BME280;15850;47.524;7.814;2022-08-01T02:57:10;97891.16;;;16.09;100.00
28665;BME280;15850;47.524;7.814;2022-08-01T02:59:38;97886.31;;;16.25;100.00
28665;BME280;15850;47.524;7.814;2022-08-01T03:02:05;97899.25;;;16.25;100.00
28665;BME280;15850;47.524;7.814;2022-08-01T03:04:45;97863.88;;;15.93;100.00
28665;BME280;15850;47.524;7.814;2022-08-01T03:07:13;97914.66;;;16.06;100.00
28665;BME280;15850;47.524;7.814;2022-08-01T03:09:44;97891.19;;;16.12;100.00
28665;BME280;15850;47.524;7.814;2022-08-01T03:12:14;97892.25;;;16.04;100.00
28665;BME280;15850;47.524;7.814;2022-08-01T03:14:42;97492.16;;;13.48;100.00
28665;BME280;15850;47.524;7.814;2022-08-01T03:17:09;97721.97;;;14.71;100.00
28665;BME280;15850;47.524;7.814;2022-08-01T03:19:35;97325.88;;;12.30;100.00
28665;BME280;15850;47.524;7.814;2022-08-01T03:22:05;97892.22;;;16.01;100.00
28665;BME280;15850;47.524;7.814;2022-08-01T03:24:33;97893.00;;;16.01;100.00
28665;BME280;15850;47.524;7.814;2022-08-01T03:27:02;97812.66;;;15.32;100.00
28665;BME280;15850;47.524;7.814;2022-08-01T03:29:29;97598.31;;;14.04;100.00
28665;BME280;15850;47.524;7.814;2022-08-01T03:31:57;97886.19;;;15.91;100.00
28665;BME280;15850;47.524;7.814;2022-08-01T03:34:23;97916.41;;;15.95;100.00
28665;BME280;15850;47.524;7.814;2022-08-01T03:36:56;97682.41;;;14.49;100.00
28665;BME280;15850;47.524;7.814;2022-08-01T03:39:30;97896.38;;;15.91;100.00
28665;BME280;15850;47.524;7.814;2022-08-01T03:42:01;97889.59;;;15.85;100.00
28665;BME280;15850;47.524;7.814;2022-08-01T03:44:31;97618.59;;;14.03;100.00
28665;BME280;15850;47.524;7.814;2022-08-01T03:47:00;97901.69;;;15.80;100.00
28665;BME280;15850;47.524;7.814;2022-08-01T03:49:29;97881.22;;;15.55;100.00
28665;BME280;15850;47.524;7.814;2022-08-01T03:51:56;97906.06;;;15.65;100.00
28665;BME280;15850;47.524;7.814;2022-08-01T03:54:24;97909.13;;;15.60;100.00
28665;BME280;15850;47.524;7.814;2022-08-01T03:56:50;97723.22;;;14.54;100.00
28665;BME280;15850;47.524;7.814;2022-08-01T03:59:19;97771.66;;;14.73;100.00
28665;BME280;15850;47.524;7.814;2022-08-01T04:01:46;97565.50;;;13.46;100.00
28665;BME280;15850;47.524;7.814;2022-08-01T04:04:13;97893.81;;;15.59;100.00
28665;BME280;15850;47.524;7.814;2022-08-01T04:06:39;97904.66;;;15.71;100.00
28665;BME280;15850;47.524;7.814;2022-08-01T04:09:06;97701.69;;;14.14;100.00
28665;BME280;15850;47.524;7.814;2022-08-01T04:11:32;97906.88;;;15.66;100.00
28665;BME280;15850;47.524;7.814;2022-08-01T04:13:58;97849.69;;;15.22;100.00
28665;BME280;15850;47.524;7.814;2022-08-01T04:16:25;97717.50;;;14.24;100.00
28665;BME280;15850;47.524;7.814;2022-08-01T04:18:51;97238.09;;;11.38;100.00
28665;BME280;15850;47.524;7.814;2022-08-01T04:21:18;97368.91;;;12.20;100.00
28665;BME280;15850;47.524;7.814;2022-08-01T04:23:46;97318.56;;;11.51;100.00
28665;BME280;15850;47.524;7.814;2022-08-01T04:26:13;97915.94;;;15.66;100.00
28665;BME280;15850;47.524;7.814;2022-08-01T04:28:41;97281.13;;;11.64;100.00
28665;BME280;15850;47.524;7.814;2022-08-01T04:31:08;97918.38;;;15.71;100.00
28665;BME280;15850;47.524;7.814;2022-08-01T04:33:37;97722.53;;;14.22;100.00
28665;BME280;15850;47.524;7.814;2022-08-01T04:36:06;97467.69;;;12.81;100.00
28665;BME280;15850;47.524;7.814;2022-08-01T04:38:33;97924.63;;;15.72;100.00
28665;BME280;15850;47.524;7.814;2022-08-01T04:41:00;97926.53;;;15.91;100.00
28665;BME280;15850;47.524;7.814;2022-08-01T04:43:27;97928.91;;;15.92;100.00
28665;BME280;15850;47.524;7.814;2022-08-01T04:45:54;97824.00;;;15.30;100.00
28665;BME280;15850;47.524;7.814;2022-08-01T04:48:21;97935.28;;;15.96;100.00
28665;BME280;15850;47.524;7.814;2022-08-01T04:50:48;97937.53;;;15.91;100.00
28665;BME280;15850;47.524;7.814;2022-08-01T04:53:14;97935.94;;;15.90;100.00
28665;BME280;15850;47.524;7.814;2022-08-01T04:55:41;97963.56;;;16.01;100.00
28665;BME280;15850;47.524;7.814;2022-08-01T04:58:07;97743.72;;;14.84;100.00
28665;BME280;15850;47.524;7.814;2022-08-01T05:00:33;97864.34;;;15.76;100.00
28665;BME280;15850;47.524;7.814;2022-08-01T05:02:59;97838.81;;;15.48;100.00
28665;BME280;15850;47.524;7.814;2022-08-01T05:05:24;97629.50;;;14.22;100.00
28665;BME280;15850;47.524;7.814;2022-08-01T05:07:51;97934.88;;;16.21;100.00
28665;BME280;15850;47.524;7.814;2022-08-01T05:10:17;97276.53;;;11.99;100.00
28665;BME280;15850;47.524;7.814;2022-08-01T05:12:43;97729.09;;;14.99;100.00
28665;BME280;15850;47.524;7.814;2022-08-01T05:15:08;97822.84;;;15.54;100.00
28665;BME280;15850;47.524;7.814;2022-08-01T05:17:34;97833.44;;;15.56;100.00
28665;BME280;15850;47.524;7.814;2022-08-01T05:19:59;97814.38;;;15.40;100.00
28665;BME280;15850;47.524;7.814;2022-08-01T05:22:25;97935.78;;;16.29;100.00
28665;BME280;15850;47.524;7.814;2022-08-01T05:24:52;97950.03;;;16.38;100.00
28665;BME280;15850;47.524;7.814;2022-08-01T05:27:18;97747.13;;;15.23;100.00
28665;BME280;15850;47.524;7.814;2022-08-01T05:29:44;97906.91;;;16.38;100.00
28665;BME280;15850;47.524;7.814;2022-08-01T05:32:09;97936.22;;;16.57;100.00
28665;BME280;15850;47.524;7.814;2022-08-01T05:34:35;97939.16;;;16.72;100.00
28665;BME280;15850;47.524;7.814;2022-08-01T05:37:00;97898.34;;;16.43;100.00
28665;BME280;15850;47.524;7.814;2022-08-01T05:39:26;97953.44;;;16.81;100.00
28665;BME280;15850;47.524;7.814;2022-08-01T05:41:53;97916.16;;;16.53;100.00
28665;BME280;15850;47.524;7.814;2022-08-01T05:44:18;97937.91;;;16.92;100.00
28665;BME280;15850;47.524;7.814;2022-08-01T05:46:44;97944.28;;;17.00;100.00
28665;BME280;15850;47.524;7.814;2022-08-01T05:49:10;97933.88;;;17.16;100.00
28665;BME280;15850;47.524;7.814;2022-08-01T05:51:35;97812.41;;;16.39;100.00
28665;BME280;15850;47.524;7.814;2022-08-01T05:54:01;97765.47;;;16.21;100.00
28665;BME280;15850;47.524;7.814;2022-08-01T05:56:26;97597.66;;;15.29;100.00
28665;BME280;15850;47.524;7.814;2022-08-01T05:58:53;97867.72;;;17.02;100.00
28665;BME280;15850;47.524;7.814;2022-08-01T06:01:19;97861.88;;;17.03;100.00
28665;BME280;15850;47.524;7.814;2022-08-01T06:03:45;97929.72;;;17.67;100.00
28665;BME280;15850;47.524;7.814;2022-08-01T06:06:11;97930.69;;;17.81;100.00
28665;BME280;15850;47.524;7.814;2022-08-01T06:08:37;97932.41;;;18.00;96.39
28665;BME280;15850;47.524;7.814;2022-08-01T06:11:02;97877.72;;;17.95;95.12
28665;BME280;15850;47.524;7.814;2022-08-01T06:13:28;97623.63;;;16.29;93.30
28665;BME280;15850;47.524;7.814;2022-08-01T06:15:55;97897.16;;;18.17;91.76
28665;BME280;15850;47.524;7.814;2022-08-01T06:18:20;97922.66;;;18.62;92.70
28665;BME280;15850;47.524;7.814;2022-08-01T06:20:46;97923.47;;;18.66;96.20
28665;BME280;15850;47.524;7.814;2022-08-01T06:23:12;97904.91;;;18.59;95.16
28665;BME280;15850;47.524;7.814;2022-08-01T06:25:37;97928.34;;;18.90;89.58
28665;BME280;15850;47.524;7.814;2022-08-01T06:28:03;97867.56;;;18.69;85.75
28665;BME280;15850;47.524;7.814;2022-08-01T06:30:29;97674.47;;;17.38;85.20
28665;BME280;15850;47.524;7.814;2022-08-01T06:32:56;97838.50;;;18.75;84.41
28665;BME280;15850;47.524;7.814;2022-08-01T06:35:21;97929.38;;;19.59;81.17
28665;BME280;15850;47.524;7.814;2022-08-01T06:37:47;97782.59;;;18.74;78.96
28665;BME280;15850;47.524;7.814;2022-08-01T06:40:13;97926.28;;;19.75;79.57
28665;BME280;15850;47.524;7.814;2022-08-01T06:42:45;97921.19;;;19.98;78.22
28665;BME280;15850;47.524;7.814;2022-08-01T06:45:12;97927.13;;;20.11;76.71
28665;BME280;15850;47.524;7.814;2022-08-01T06:47:39;97923.94;;;20.02;77.28
28665;BME280;15850;47.524;7.814;2022-08-01T06:50:08;97922.78;;;20.10;77.65
28665;BME280;15850;47.524;7.814;2022-08-01T06:52:34;97920.41;;;20.23;74.64
28665;BME280;15850;47.524;7.814;2022-08-01T06:55:00;97923.97;;;20.30;72.84
28665;BME280;15850;47.524;7.814;2022-08-01T06:57:26;97847.41;;;20.09;71.54
28665;BME280;15850;47.524;7.814;2022-08-01T06:59:51;97918.03;;;20.57;70.34
28665;BME280;15850;47.524;7.814;2022-08-01T07:02:17;97920.34;;;20.83;69.98
28665;BME280;15850;47.524;7.814;2022-08-01T07:04:43;97899.00;;;20.84;69.15
28665;BME280;15850;47.524;7.814;2022-08-01T07:07:10;97920.72;;;20.82;70.04
28665;BME280;15850;47.524;7.814;2022-08-01T07:09:35;97912.00;;;20.94;70.58
28665;BME280;15850;47.524;7.814;2022-08-01T07:12:01;97913.06;;;21.22;69.74
28665;BME280;15850;47.524;7.814;2022-08-01T07:14:26;97882.69;;;21.11;70.68
28665;BME280;15850;47.524;7.814;2022-08-01T07:16:52;97917.78;;;21.43;69.95
28665;BME280;15850;47.524;7.814;2022-08-01T07:19:18;97919.31;;;21.47;69.92
28665;BME280;15850;47.524;7.814;2022-08-01T07:21:43;97919.34;;;21.44;68.29
28665;BME280;15850;47.524;7.814;2022-08-01T07:24:12;97913.38;;;21.52;65.80
28665;BME280;15850;47.524;7.814;2022-08-01T07:26:39;97919.56;;;21.71;66.27
28665;BME280;15850;47.524;7.814;2022-08-01T07:29:05;97914.81;;;21.71;68.14
28665;BME280;15850;47.524;7.814;2022-08-01T07:31:30;97911.53;;;21.91;66.92
28665;BME280;15850;47.524;7.814;2022-08-01T07:33:56;97905.84;;;22.05;65.74
28665;BME280;15850;47.524;7.814;2022-08-01T07:36:21;97903.44;;;22.11;65.10
28665;BME280;15850;47.524;7.814;2022-08-01T07:38:47;97773.06;;;21.39;66.04
28665;BME280;15850;47.524;7.814;2022-08-01T07:41:15;97865.84;;;22.13;65.54
28665;BME280;15850;47.524;7.814;2022-08-01T07:43:41;97886.50;;;22.50;63.36
28665;BME280;15850;47.524;7.814;2022-08-01T07:46:06;97848.28;;;22.31;60.37
28665;BME280;15850;47.524;7.814;2022-08-01T07:48:33;97824.69;;;22.15;62.38
28665;BME280;15850;47.524;7.814;2022-08-01T07:50:59;97859.03;;;22.63;61.02
28665;BME280;15850;47.524;7.814;2022-08-01T07:53:24;97706.00;;;21.65;61.42
28665;BME280;15850;47.524;7.814;2022-08-01T07:55:50;97890.41;;;22.94;61.53
28665;BME280;15850;47.524;7.814;2022-08-01T07:58:17;97882.47;;;22.96;60.63
28665;BME280;15850;47.524;7.814;2022-08-01T08:00:43;97882.28;;;23.10;61.23
28665;BME280;15850;47.524;7.814;2022-08-01T08:03:09;97878.53;;;23.24;59.52
28665;BME280;15850;47.524;7.814;2022-08-01T08:05:35;97879.50;;;23.10;59.87
28665;BME280;15850;47.524;7.814;2022-08-01T08:08:01;97875.84;;;23.17;60.01
28665;BME280;15850;47.524;7.814;2022-08-01T08:10:26;97862.34;;;23.19;59.43
28665;BME280;15850;47.524;7.814;2022-08-01T08:12:52;97869.59;;;23.40;59.09
28665;BME280;15850;47.524;7.814;2022-08-01T08:15:19;97875.69;;;23.58;58.19
28665;BME280;15850;47.524;7.814;2022-08-01T08:17:44;97868.25;;;23.79;56.29
28665;BME280;15850;47.524;7.814;2022-08-01T08:20:10;97859.59;;;23.73;56.49
28665;BME280;15850;47.524;7.814;2022-08-01T08:22:36;97865.00;;;23.84;55.57
28665;BME280;15850;47.524;7.814;2022-08-01T08:25:02;97864.53;;;23.89;54.63
28665;BME280;15850;47.524;7.814;2022-08-01T08:27:28;97866.22;;;24.06;54.74
28665;BME280;15850;47.524;7.814;2022-08-01T08:29:54;97853.41;;;24.12;53.38
28665;BME280;15850;47.524;7.814;2022-08-01T08:32:20;97858.06;;;24.19;52.81
28665;BME280;15850;47.524;7.814;2022-08-01T08:34:46;97751.56;;;23.55;52.25
28665;BME280;15850;47.524;7.814;2022-08-01T08:37:12;97856.56;;;24.14;51.89
28665;BME280;15850;47.524;7.814;2022-08-01T08:39:37;97854.09;;;24.40;52.29
28665;BME280;15850;47.524;7.814;2022-08-01T08:42:06;97837.59;;;24.09;52.72
28665;BME280;15850;47.524;7.814;2022-08-01T08:44:31;97678.94;;;23.33;51.97
28665;BME280;15850;47.524;7.814;2022-08-01T08:47:01;97832.97;;;24.46;51.24
28665;BME280;15850;47.524;7.814;2022-08-01T08:49:29;97853.09;;;24.54;52.33
28665;BME280;15850;47.524;7.814;2022-08-01T08:52:01;97727.06;;;23.74;52.21
28665;BME280;15850;47.524;7.814;2022-08-01T08:54:29;97842.25;;;24.59;52.17
28665;BME280;15850;47.524;7.814;2022-08-01T08:56:55;97853.97;;;24.71;52.78
28665;BME280;15850;47.524;7.814;2022-08-01T08:59:21;97762.06;;;24.14;51.44
28665;BME280;15850;47.524;7.814;2022-08-01T09:01:47;97792.59;;;24.38;52.19
28665;BME280;15850;47.524;7.814;2022-08-01T09:04:13;97849.47;;;24.97;50.72
28665;BME280;15850;47.524;7.814;2022-08-01T09:06:40;97855.59;;;25.08;50.86
28665;BME280;15850;47.524;7.814;2022-08-01T09:09:07;97849.25;;;25.07;50.16
28665;BME280;15850;47.524;7.814;2022-08-01T09:11:33;97838.28;;;25.00;50.49
28665;BME280;15850;47.524;7.814;2022-08-01T09:14:07;97851.38;;;25.20;50.17
28665;BME280;15850;47.524;7.814;2022-08-01T09:16:34;97798.56;;;24.96;50.40
28665;BME280;15850;47.524;7.814;2022-08-01T09:19:11;97850.94;;;25.41;49.06
28665;BME280;15850;47.524;7.814;2022-08-01T09:21:37;97853.78;;;25.38;49.99
28665;BME280;15850;47.524;7.814;2022-08-01T09:24:13;97849.44;;;25.37;49.71
28665;BME280;15850;47.524;7.814;2022-08-01T09:26:39;97817.53;;;25.58;47.62
28665;BME280;15850;47.524;7.814;2022-08-01T09:29:06;97751.09;;;25.23;44.54
28665;BME280;15850;47.524;7.814;2022-08-01T09:31:39;97832.78;;;26.02;42.30
28665;BME280;15850;47.524;7.814;2022-08-01T09:34:05;97846.72;;;26.02;44.00
28665;BME280;15850;47.524;7.814;2022-08-01T09:36:44;97842.09;;;25.95;46.58
28665;BME280;15850;47.524;7.814;2022-08-01T09:39:13;97777.22;;;25.62;45.69
28665;BME280;15850;47.524;7.814;2022-08-01T09:41:39;97845.25;;;25.97;45.72
28665;BME280;15850;47.524;7.814;2022-08-01T09:44:05;97808.56;;;25.99;45.36
28665;BME280;15850;47.524;7.814;2022-08-01T09:46:31;97788.47;;;25.91;44.08
28665;BME280;15850;47.524;7.814;2022-08-01T09:48:58;97820.53;;;25.99;42.78
28665;BME280;15850;47.524;7.814;2022-08-01T09:51:32;97753.81;;;25.60;42.49
28665;BME280;15850;47.524;7.814;2022-08-01T09:53:58;97765.38;;;25.74;42.90
28665;BME280;15850;47.524;7.814;2022-08-01T09:56:25;97787.09;;;25.83;42.50
28665;BME280;15850;47.524;7.814;2022-08-01T09:58:52;97831.09;;;26.21;41.42
28665;BME280;15850;47.524;7.814;2022-08-01T10:01:20;97804.56;;;26.16;41.83
28665;BME280;15850;47.524;7.814;2022-08-01T10:03:46;97569.00;;;24.72;42.00
28665;BME280;15850;47.524;7.814;2022-08-01T10:06:19;97797.28;;;26.19;41.84
28665;BME280;15850;47.524;7.814;2022-08-01T10:08:46;97825.50;;;26.54;40.94
28665;BME280;15850;47.524;7.814;2022-08-01T10:11:11;97813.00;;;26.58;40.87
28665;BME280;15850;47.524;7.814;2022-08-01T10:13:39;97811.97;;;26.52;41.25
28665;BME280;15850;47.524;7.814;2022-08-01T10:16:05;97808.00;;;26.66;40.94
28665;BME280;15850;47.524;7.814;2022-08-01T10:18:33;97778.41;;;26.56;41.41
28665;BME280;15850;47.524;7.814;2022-08-01T10:20:59;97813.50;;;26.69;40.35
28665;BME280;15850;47.524;7.814;2022-08-01T10:23:26;97812.78;;;26.65;40.75
28665;BME280;15850;47.524;7.814;2022-08-01T10:25:53;97779.66;;;26.67;40.98
28665;BME280;15850;47.524;7.814;2022-08-01T10:28:19;97804.25;;;26.85;40.15
28665;BME280;15850;47.524;7.814;2022-08-01T10:30:48;97566.13;;;25.24;39.88
28665;BME280;15850;47.524;7.814;2022-08-01T10:33:15;97789.59;;;26.68;39.62
28665;BME280;15850;47.524;7.814;2022-08-01T10:35:41;97791.84;;;26.74;39.88
28665;BME280;15850;47.524;7.814;2022-08-01T10:38:06;97792.00;;;26.96;39.21
28665;BME280;15850;47.524;7.814;2022-08-01T10:40:32;97790.66;;;27.00;38.15
28665;BME280;15850;47.524;7.814;2022-08-01T10:42:59;97692.47;;;26.51;37.34
28665;BME280;15850;47.524;7.814;2022-08-01T10:45:25;97773.25;;;26.96;36.75
28665;BME280;15850;47.524;7.814;2022-08-01T10:47:59;97776.41;;;27.36;36.78
28665;BME280;15850;47.524;7.814;2022-08-01T10:50:31;97774.41;;;27.50;37.18
28665;BME280;15850;47.524;7.814;2022-08-01T10:53:10;97768.38;;;27.38;38.17
28665;BME280;15850;47.524;7.814;2022-08-01T10:55:47;97773.50;;;27.27;38.55
28665;BME280;15850;47.524;7.814;2022-08-01T10:58:13;97773.63;;;27.36;38.66
28665;BME280;15850;47.524;7.814;2022-08-01T11:00:38;97713.84;;;27.21;38.36
28665;BME280;15850;47.524;7.814;2022-08-01T11:03:05;97768.44;;;27.60;38.24
28665;BME280;15850;47.524;7.814;2022-08-01T11:05:32;97651.66;;;26.82;39.01
28665;BME280;15850;47.524;7.814;2022-08-01T11:08:01;97556.03;;;26.01;38.28
28665;BME280;15850;47.524;7.814;2022-08-01T11:10:31;97772.38;;;27.37;38.69
28665;BME280;15850;47.524;7.814;2022-08-01T11:12:59;97777.53;;;27.39;37.94
28665;BME280;15850;47.524;7.814;2022-08-01T11:15:25;97760.66;;;27.43;36.62
28665;BME280;15850;47.524;7.814;2022-08-01T11:17:51;97762.22;;;27.31;37.97
28665;BME280;15850;47.524;7.814;2022-08-01T11:20:19;97756.63;;;27.44;38.83
28665;BME280;15850;47.524;7.814;2022-08-01T11:26:06;97752.56;;;27.83;38.76
28665;BME280;15850;47.524;7.814;2022-08-01T11:28:31;97755.34;;;27.96;38.05
28665;BME280;15850;47.524;7.814;2022-08-01T11:31:24;97758.50;;;27.72;39.35
28665;BME280;15850;47.524;7.814;2022-08-01T11:33:50;97733.34;;;27.72;37.24
28665;BME280;15850;47.524;7.814;2022-08-01T11:36:18;97716.72;;;27.56;38.80
28665;BME280;15850;47.524;7.814;2022-08-01T11:38:45;97731.88;;;27.80;39.22
28665;BME280;15850;47.524;7.814;2022-08-01T11:41:11;97719.81;;;27.83;40.08
28665;BME280;15850;47.524;7.814;2022-08-01T11:43:54;97739.84;;;28.04;39.00
28665;BME280;15850;47.524;7.814;2022-08-01T11:46:21;97642.34;;;27.24;38.23
28665;BME280;15850;47.524;7.814;2022-08-01T11:49:23;97727.69;;;27.98;38.81
28665;BME280;15850;47.524;7.814;2022-08-01T11:51:57;97657.19;;;27.68;38.61
28665;BME280;15850;47.524;7.814;2022-08-01T11:54:25;97722.19;;;28.29;39.06
28665;BME280;15850;47.524;7.814;2022-08-01T11:56:54;97698.13;;;28.09;37.61
28665;BME280;15850;47.524;7.814;2022-08-01T11:59:21;97723.19;;;28.35;37.33
28665;BME280;15850;47.524;7.814;2022-08-01T12:01:47;97558.34;;;27.18;37.43
28665;BME280;15850;47.524;7.814;2022-08-01T12:04:12;97654.59;;;27.86;37.76
28665;BME280;15850;47.524;7.814;2022-08-01T12:06:38;97726.41;;;28.33;37.65
28665;BME280;15850;47.524;7.814;2022-08-01T12:09:16;97725.59;;;28.46;36.54
28665;BME280;15850;47.524;7.814;2022-08-01T12:11:42;97728.91;;;28.53;35.99
28665;BME280;15850;47.524;7.814;2022-08-01T12:14:07;97649.72;;;28.00;37.02
28665;BME280;15850;47.524;7.814;2022-08-01T12:16:33;97733.31;;;28.64;37.78
28665;BME280;15850;47.524;7.814;2022-08-01T12:18:59;97718.31;;;28.48;37.17
28665;BME280;15850;47.524;7.814;2022-08-01T12:21:24;97714.16;;;28.53;36.58
28665;BME280;15850;47.524;7.814;2022-08-01T12:24:00;97707.50;;;28.60;36.52
28665;BME280;15850;47.524;7.814;2022-08-01T12:26:40;97671.56;;;28.36;37.08
28665;BME280;15850;47.524;7.814;2022-08-01T12:29:05;97717.22;;;28.77;36.75
28665;BME280;15850;47.524;7.814;2022-08-01T12:31:32;97709.03;;;28.83;36.33
28665;BME280;15850;47.524;7.814;2022-08-01T12:33:57;97707.25;;;28.98;35.93
28665;BME280;15850;47.524;7.814;2022-08-01T12:36:27;97703.69;;;29.07;35.32
28665;BME280;15850;47.524;7.814;2022-08-01T12:38:53;97700.97;;;28.94;35.34
28665;BME280;15850;47.524;7.814;2022-08-01T12:41:19;97699.38;;;28.84;36.44
28665;BME280;15850;47.524;7.814;2022-08-01T12:43:46;97679.75;;;28.74;35.45
28665;BME280;15850;47.524;7.814;2022-08-01T12:46:13;97537.56;;;27.98;35.69
28665;BME280;15850;47.524;7.814;2022-08-01T12:48:39;97709.00;;;29.14;33.65
28665;BME280;15850;47.524;7.814;2022-08-01T12:51:04;97703.97;;;29.31;33.36
28665;BME280;15850;47.524;7.814;2022-08-01T12:53:33;97697.41;;;29.34;34.23
28665;BME280;15850;47.524;7.814;2022-08-01T12:55:58;97690.41;;;29.29;33.10
28665;BME280;15850;47.524;7.814;2022-08-01T12:58:31;97681.25;;;29.38;34.26
28665;BME280;15850;47.524;7.814;2022-08-01T13:01:04;97640.00;;;29.38;32.91
28665;BME280;15850;47.524;7.814;2022-08-01T13:03:30;97642.66;;;29.60;34.18
28665;BME280;15850;47.524;7.814;2022-08-01T13:05:58;97690.19;;;30.10;31.47